sensor_id;sensor_type;location;lat;lon;timestamp;P1;durP1;ratioP1;P2;durP2;ratioP2
13457;SDS011;6801;53.018;11.560;2023-02-22T00:00:33;10.70;;;3.40;;
13457;SDS011;6801;53.018;11.560;2023-02-22T00:03:08;7.70;;;3.60;;
13457;SDS011;6801;53.018;11.560;2023-02-22T00:05:37;11.15;;;3.00;;
13457;SDS011;6801;53.018;11.560;2023-02-22T00:08:05;10.70;;;3.28;;
13457;SDS011;6801;53.018;11.560;2023-02-22T00:10:34;7.15;;;2.92;;
13457;SDS011;6801;53.018;11.560;2023-02-22T00:13:03;9.70;;;3.65;;
13457;SDS011;6801;53.018;11.560;2023-02-22T00:15:32;8.25;;;2.83;;
13457;SDS011;6801;53.018;11.560;2023-02-22T00:18:00;11.88;;;3.17;;
13457;SDS011;6801;53.018;11.560;2023-02-22T00:20:29;6.07;;;3.03;;
13457;SDS011;6801;53.018;11.560;2023-02-22T00:22:57;13.38;;;5.28;;
13457;SDS011;6801;53.018;11.560;2023-02-22T00:25:25;14.85;;;3.70;;
13457;SDS011;6801;53.018;11.560;2023-02-22T00:27:52;9.68;;;3.60;;
13457;SDS011;6801;53.018;11.560;2023-02-22T00:30:21;10.95;;;4.07;;
13457;SDS011;6801;53.018;11.560;2023-02-22T00:32:52;5.40;;;2.22;;
13457;SDS011;6801;53.018;11.560;2023-02-22T00:35:20;8.38;;;3.53;;
13457;SDS011;6801;53.018;11.560;2023-02-22T00:40:20;10.38;;;3.78;;
13457;SDS011;6801;53.018;11.560;2023-02-22T00:42:48;12.40;;;4.53;;
13457;SDS011;6801;53.018;11.560;2023-02-22T00:45:17;9.38;;;2.75;;
13457;SDS011;6801;53.018;11.560;2023-02-22T00:47:46;8.60;;;3.40;;
13457;SDS011;6801;53.018;11.560;2023-02-22T00:50:13;11.75;;;3.88;;
13457;SDS011;6801;53.018;11.560;2023-02-22T00:52:41;11.90;;;3.88;;
13457;SDS011;6801;53.018;11.560;2023-02-22T00:55:09;11.52;;;3.67;;
13457;SDS011;6801;53.018;11.560;2023-02-22T00:57:42;13.93;;;4.18;;
13457;SDS011;6801;53.018;11.560;2023-02-22T01:00:13;11.57;;;3.60;;
13457;SDS011;6801;53.018;11.560;2023-02-22T01:02:43;7.63;;;3.25;;
13457;SDS011;6801;53.018;11.560;2023-02-22T01:05:12;9.52;;;4.50;;
13457;SDS011;6801;53.018;11.560;2023-02-22T01:07:40;10.30;;;4.03;;
13457;SDS011;6801;53.018;11.560;2023-02-22T01:10:08;10.73;;;3.97;;
13457;SDS011;6801;53.018;11.560;2023-02-22T01:12:35;13.45;;;4.18;;
13457;SDS011;6801;53.018;11.560;2023-02-22T01:15:05;28.65;;;10.45;;
13457;SDS011;6801;53.018;11.560;2023-02-22T01:17:34;21.25;;;8.25;;
13457;SDS011;6801;53.018;11.560;2023-02-22T01:20:02;9.13;;;3.13;;
13457;SDS011;6801;53.018;11.560;2023-02-22T01:22:34;9.15;;;3.38;;
13457;SDS011;6801;53.018;11.560;2023-02-22T01:25:01;8.93;;;3.60;;
13457;SDS011;6801;53.018;11.560;2023-02-22T01:27:31;8.05;;;3.05;;
13457;SDS011;6801;53.018;11.560;2023-02-22T01:29:58;13.80;;;4.03;;
13457;SDS011;6801;53.018;11.560;2023-02-22T01:32:26;6.97;;;3.03;;
13457;SDS011;6801;53.018;11.560;2023-02-22T01:34:54;8.90;;;4.20;;
13457;SDS011;6801;53.018;11.560;2023-02-22T01:37:21;14.40;;;3.83;;
13457;SDS011;6801;53.018;11.560;2023-02-22T01:39:48;33.03;;;9.18;;
13457;SDS011;6801;53.018;11.560;2023-02-22T01:42:15;12.10;;;3.35;;
13457;SDS011;6801;53.018;11.560;2023-02-22T01:44:42;16.85;;;5.40;;
13457;SDS011;6801;53.018;11.560;2023-02-22T01:47:09;20.15;;;5.75;;
13457;SDS011;6801;53.018;11.560;2023-02-22T01:49:38;19.50;;;5.40;;
13457;SDS011;6801;53.018;11.560;2023-02-22T01:52:09;12.15;;;4.38;;
13457;SDS011;6801;53.018;11.560;2023-02-22T01:54:41;14.90;;;6.03;;
13457;SDS011;6801;53.018;11.560;2023-02-22T01:57:20;12.38;;;6.65;;
13457;SDS011;6801;53.018;11.560;2023-02-22T01:59:50;47.30;;;23.63;;
13457;SDS011;6801;53.018;11.560;2023-02-22T02:02:21;194.35;;;44.75;;
13457;SDS011;6801;53.018;11.560;2023-02-22T02:04:53;176.82;;;44.92;;
13457;SDS011;6801;53.018;11.560;2023-02-22T02:07:24;67.90;;;20.13;;
13457;SDS011;6801;53.018;11.560;2023-02-22T02:09:55;38.70;;;12.45;;
13457;SDS011;6801;53.018;11.560;2023-02-22T02:12:24;11.52;;;4.65;;
13457;SDS011;6801;53.018;11.560;2023-02-22T02:14:52;16.38;;;3.60;;
13457;SDS011;6801;53.018;11.560;2023-02-22T02:17:40;15.27;;;4.30;;
13457;SDS011;6801;53.018;11.560;2023-02-22T02:20:11;16.70;;;3.78;;
13457;SDS011;6801;53.018;11.560;2023-02-22T02:22:45;14.52;;;3.40;;
13457;SDS011;6801;53.018;11.560;2023-02-22T02:25:40;11.43;;;3.55;;
13457;SDS011;6801;53.018;11.560;2023-02-22T02:28:42;9.07;;;3.72;;
13457;SDS011;6801;53.018;11.560;2023-02-22T02:31:53;9.80;;;3.78;;
13457;SDS011;6801;53.018;11.560;2023-02-22T02:34:43;13.75;;;3.38;;
13457;SDS011;6801;53.018;11.560;2023-02-22T02:37:19;13.25;;;3.58;;
13457;SDS011;6801;53.018;11.560;2023-02-22T02:39:52;13.05;;;3.90;;
13457;SDS011;6801;53.018;11.560;2023-02-22T02:42:24;8.48;;;2.40;;
13457;SDS011;6801;53.018;11.560;2023-02-22T02:45:01;9.75;;;2.78;;
13457;SDS011;6801;53.018;11.560;2023-02-22T02:47:36;13.85;;;2.97;;
13457;SDS011;6801;53.018;11.560;2023-02-22T02:50:07;9.20;;;3.10;;
13457;SDS011;6801;53.018;11.560;2023-02-22T02:52:39;15.80;;;4.20;;
13457;SDS011;6801;53.018;11.560;2023-02-22T02:55:06;15.05;;;2.67;;
13457;SDS011;6801;53.018;11.560;2023-02-22T02:57:35;14.05;;;3.72;;
13457;SDS011;6801;53.018;11.560;2023-02-22T03:00:04;11.27;;;2.47;;
13457;SDS011;6801;53.018;11.560;2023-02-22T03:02:50;11.25;;;2.88;;
13457;SDS011;6801;53.018;11.560;2023-02-22T03:05:32;9.65;;;3.50;;
13457;SDS011;6801;53.018;11.560;2023-02-22T03:08:11;9.43;;;2.90;;
13457;SDS011;6801;53.018;11.560;2023-02-22T03:10:45;5.78;;;2.40;;
13457;SDS011;6801;53.018;11.560;2023-02-22T03:13:22;11.00;;;3.20;;
13457;SDS011;6801;53.018;11.560;2023-02-22T03:16:03;14.80;;;5.18;;
13457;SDS011;6801;53.018;11.560;2023-02-22T03:18:43;11.90;;;5.28;;
13457;SDS011;6801;53.018;11.560;2023-02-22T03:21:19;11.52;;;4.53;;
13457;SDS011;6801;53.018;11.560;2023-02-22T03:23:54;13.73;;;2.42;;
13457;SDS011;6801;53.018;11.560;2023-02-22T03:26:30;8.00;;;2.55;;
13457;SDS011;6801;53.018;11.560;2023-02-22T03:29:06;8.07;;;2.72;;
13457;SDS011;6801;53.018;11.560;2023-02-22T03:31:37;11.27;;;4.70;;
13457;SDS011;6801;53.018;11.560;2023-02-22T03:34:09;8.13;;;2.42;;
13457;SDS011;6801;53.018;11.560;2023-02-22T03:39:09;41.38;;;18.58;;
13457;SDS011;6801;53.018;11.560;2023-02-22T03:41:42;30.80;;;18.08;;
13457;SDS011;6801;53.018;11.560;2023-02-22T03:44:19;11.68;;;3.83;;
13457;SDS011;6801;53.018;11.560;2023-02-22T03:46:51;10.65;;;3.17;;
13457;SDS011;6801;53.018;11.560;2023-02-22T03:49:25;40.63;;;16.23;;
13457;SDS011;6801;53.018;11.560;2023-02-22T03:51:59;131.48;;;59.78;;
13457;SDS011;6801;53.018;11.560;2023-02-22T03:54:29;434.75;;;184.07;;
13457;SDS011;6801;53.018;11.560;2023-02-22T03:56:58;456.08;;;176.15;;
13457;SDS011;6801;53.018;11.560;2023-02-22T03:59:35;122.38;;;40.92;;
13457;SDS011;6801;53.018;11.560;2023-02-22T04:02:04;289.08;;;93.82;;
13457;SDS011;6801;53.018;11.560;2023-02-22T04:04:32;117.20;;;36.67;;
13457;SDS011;6801;53.018;11.560;2023-02-22T04:06:59;22.10;;;10.07;;
13457;SDS011;6801;53.018;11.560;2023-02-22T04:09:27;15.02;;;6.43;;
13457;SDS011;6801;53.018;11.560;2023-02-22T04:11:54;32.78;;;18.40;;
13457;SDS011;6801;53.018;11.560;2023-02-22T04:14:21;15.68;;;6.35;;
13457;SDS011;6801;53.018;11.560;2023-02-22T04:16:48;135.90;;;41.95;;
13457;SDS011;6801;53.018;11.560;2023-02-22T04:19:16;63.53;;;35.00;;
13457;SDS011;6801;53.018;11.560;2023-02-22T04:21:44;19.23;;;6.70;;
13457;SDS011;6801;53.018;11.560;2023-02-22T04:24:18;19.23;;;5.53;;
13457;SDS011;6801;53.018;11.560;2023-02-22T04:26:46;251.40;;;90.88;;
13457;SDS011;6801;53.018;11.560;2023-02-22T04:29:13;204.50;;;100.03;;
13457;SDS011;6801;53.018;11.560;2023-02-22T04:31:42;58.45;;;37.05;;
13457;SDS011;6801;53.018;11.560;2023-02-22T04:34:10;36.60;;;18.33;;
13457;SDS011;6801;53.018;11.560;2023-02-22T04:36:39;312.88;;;105.82;;
13457;SDS011;6801;53.018;11.560;2023-02-22T04:39:10;391.05;;;196.48;;
13457;SDS011;6801;53.018;11.560;2023-02-22T04:41:37;103.55;;;71.60;;
13457;SDS011;6801;53.018;11.560;2023-02-22T04:44:05;83.72;;;54.50;;
13457;SDS011;6801;53.018;11.560;2023-02-22T04:46:32;181.88;;;83.38;;
13457;SDS011;6801;53.018;11.560;2023-02-22T04:49:00;22.75;;;8.38;;
13457;SDS011;6801;53.018;11.560;2023-02-22T04:51:30;80.05;;;51.45;;
13457;SDS011;6801;53.018;11.560;2023-02-22T04:54:21;75.90;;;50.25;;
13457;SDS011;6801;53.018;11.560;2023-02-22T04:56:47;113.60;;;48.25;;
13457;SDS011;6801;53.018;11.560;2023-02-22T04:59:14;67.95;;;27.10;;
13457;SDS011;6801;53.018;11.560;2023-02-22T05:01:44;19.23;;;9.57;;
13457;SDS011;6801;53.018;11.560;2023-02-22T05:04:11;16.73;;;6.10;;
13457;SDS011;6801;53.018;11.560;2023-02-22T05:06:38;9.43;;;4.07;;
13457;SDS011;6801;53.018;11.560;2023-02-22T05:09:05;20.17;;;5.38;;
13457;SDS011;6801;53.018;11.560;2023-02-22T05:11:33;26.33;;;10.20;;
13457;SDS011;6801;53.018;11.560;2023-02-22T05:14:00;16.30;;;5.80;;
13457;SDS011;6801;53.018;11.560;2023-02-22T05:16:27;69.20;;;35.50;;
13457;SDS011;6801;53.018;11.560;2023-02-22T05:18:54;28.13;;;12.93;;
13457;SDS011;6801;53.018;11.560;2023-02-22T05:21:21;19.63;;;9.00;;
13457;SDS011;6801;53.018;11.560;2023-02-22T05:23:48;16.45;;;6.15;;
13457;SDS011;6801;53.018;11.560;2023-02-22T05:26:15;13.90;;;4.88;;
13457;SDS011;6801;53.018;11.560;2023-02-22T05:28:44;12.68;;;4.57;;
13457;SDS011;6801;53.018;11.560;2023-02-22T05:31:11;17.67;;;7.45;;
13457;SDS011;6801;53.018;11.560;2023-02-22T05:33:38;32.30;;;18.83;;
13457;SDS011;6801;53.018;11.560;2023-02-22T05:36:06;16.25;;;7.40;;
13457;SDS011;6801;53.018;11.560;2023-02-22T05:38:35;17.05;;;7.20;;
13457;SDS011;6801;53.018;11.560;2023-02-22T05:41:07;17.45;;;5.45;;
13457;SDS011;6801;53.018;11.560;2023-02-22T05:43:34;60.13;;;32.97;;
13457;SDS011;6801;53.018;11.560;2023-02-22T05:46:03;22.17;;;9.55;;
13457;SDS011;6801;53.018;11.560;2023-02-22T05:48:30;17.90;;;8.75;;
13457;SDS011;6801;53.018;11.560;2023-02-22T05:50:57;13.02;;;6.00;;
13457;SDS011;6801;53.018;11.560;2023-02-22T05:53:24;16.83;;;6.80;;
13457;SDS011;6801;53.018;11.560;2023-02-22T05:55:51;22.92;;;8.65;;
13457;SDS011;6801;53.018;11.560;2023-02-22T05:58:18;16.60;;;7.63;;
13457;SDS011;6801;53.018;11.560;2023-02-22T06:00:45;16.05;;;7.10;;
13457;SDS011;6801;53.018;11.560;2023-02-22T06:03:14;16.25;;;7.65;;
13457;SDS011;6801;53.018;11.560;2023-02-22T06:05:41;20.58;;;9.63;;
13457;SDS011;6801;53.018;11.560;2023-02-22T06:08:08;16.77;;;6.80;;
13457;SDS011;6801;53.018;11.560;2023-02-22T06:10:35;19.05;;;6.70;;
13457;SDS011;6801;53.018;11.560;2023-02-22T06:13:02;14.80;;;6.63;;
13457;SDS011;6801;53.018;11.560;2023-02-22T06:15:30;19.83;;;7.43;;
13457;SDS011;6801;53.018;11.560;2023-02-22T06:17:58;26.00;;;14.38;;
13457;SDS011;6801;53.018;11.560;2023-02-22T06:20:27;18.20;;;8.55;;
13457;SDS011;6801;53.018;11.560;2023-02-22T06:22:56;40.53;;;10.35;;
13457;SDS011;6801;53.018;11.560;2023-02-22T06:25:24;21.35;;;8.57;;
13457;SDS011;6801;53.018;11.560;2023-02-22T06:27:52;13.77;;;7.10;;
13457;SDS011;6801;53.018;11.560;2023-02-22T06:30:20;22.65;;;6.93;;
13457;SDS011;6801;53.018;11.560;2023-02-22T06:32:49;26.92;;;8.55;;
13457;SDS011;6801;53.018;11.560;2023-02-22T06:35:16;21.75;;;8.70;;
13457;SDS011;6801;53.018;11.560;2023-02-22T06:37:45;27.77;;;9.95;;
13457;SDS011;6801;53.018;11.560;2023-02-22T06:40:13;26.23;;;7.72;;
13457;SDS011;6801;53.018;11.560;2023-02-22T06:42:40;24.30;;;7.80;;
13457;SDS011;6801;53.018;11.560;2023-02-22T06:45:08;34.47;;;10.57;;
13457;SDS011;6801;53.018;11.560;2023-02-22T06:47:36;23.98;;;8.43;;
13457;SDS011;6801;53.018;11.560;2023-02-22T06:50:06;27.60;;;8.68;;
13457;SDS011;6801;53.018;11.560;2023-02-22T06:52:34;26.88;;;8.38;;
13457;SDS011;6801;53.018;11.560;2023-02-22T06:55:02;20.65;;;9.00;;
13457;SDS011;6801;53.018;11.560;2023-02-22T06:57:29;22.40;;;10.95;;
13457;SDS011;6801;53.018;11.560;2023-02-22T06:59:56;27.67;;;11.43;;
13457;SDS011;6801;53.018;11.560;2023-02-22T07:02:23;28.35;;;9.90;;
13457;SDS011;6801;53.018;11.560;2023-02-22T07:04:50;24.13;;;10.35;;
13457;SDS011;6801;53.018;11.560;2023-02-22T07:07:17;25.55;;;10.60;;
13457;SDS011;6801;53.018;11.560;2023-02-22T07:09:47;31.50;;;11.23;;
13457;SDS011;6801;53.018;11.560;2023-02-22T07:12:15;34.60;;;10.95;;
13457;SDS011;6801;53.018;11.560;2023-02-22T07:14:42;26.17;;;10.57;;
13457;SDS011;6801;53.018;11.560;2023-02-22T07:17:09;29.38;;;10.98;;
13457;SDS011;6801;53.018;11.560;2023-02-22T07:19:36;31.20;;;11.25;;
13457;SDS011;6801;53.018;11.560;2023-02-22T07:22:03;28.95;;;11.50;;
13457;SDS011;6801;53.018;11.560;2023-02-22T07:24:30;32.50;;;10.82;;
13457;SDS011;6801;53.018;11.560;2023-02-22T07:26:59;30.83;;;11.00;;
13457;SDS011;6801;53.018;11.560;2023-02-22T07:29:27;28.90;;;10.27;;
13457;SDS011;6801;53.018;11.560;2023-02-22T07:31:55;23.50;;;12.00;;
13457;SDS011;6801;53.018;11.560;2023-02-22T07:34:22;28.33;;;10.95;;
13457;SDS011;6801;53.018;11.560;2023-02-22T07:36:49;26.23;;;11.35;;
13457;SDS011;6801;53.018;11.560;2023-02-22T07:39:16;30.50;;;12.30;;
13457;SDS011;6801;53.018;11.560;2023-02-22T07:41:44;29.27;;;10.45;;
13457;SDS011;6801;53.018;11.560;2023-02-22T07:44:21;21.30;;;9.52;;
13457;SDS011;6801;53.018;11.560;2023-02-22T07:46:49;23.85;;;9.77;;
13457;SDS011;6801;53.018;11.560;2023-02-22T07:49:16;24.52;;;10.20;;
13457;SDS011;6801;53.018;11.560;2023-02-22T07:51:43;25.08;;;9.73;;
13457;SDS011;6801;53.018;11.560;2023-02-22T07:54:11;20.45;;;9.32;;
13457;SDS011;6801;53.018;11.560;2023-02-22T07:56:43;23.17;;;8.80;;
13457;SDS011;6801;53.018;11.560;2023-02-22T07:59:10;23.15;;;10.15;;
13457;SDS011;6801;53.018;11.560;2023-02-22T08:01:37;19.48;;;9.15;;
13457;SDS011;6801;53.018;11.560;2023-02-22T08:04:06;22.63;;;11.02;;
13457;SDS011;6801;53.018;11.560;2023-02-22T08:06:33;20.67;;;8.85;;
13457;SDS011;6801;53.018;11.560;2023-02-22T08:09:00;26.60;;;9.82;;
13457;SDS011;6801;53.018;11.560;2023-02-22T08:11:27;22.70;;;8.60;;
13457;SDS011;6801;53.018;11.560;2023-02-22T08:13:54;17.88;;;8.32;;
13457;SDS011;6801;53.018;11.560;2023-02-22T08:16:21;23.63;;;10.00;;
13457;SDS011;6801;53.018;11.560;2023-02-22T08:18:48;26.83;;;9.07;;
13457;SDS011;6801;53.018;11.560;2023-02-22T08:21:16;18.95;;;8.50;;
13457;SDS011;6801;53.018;11.560;2023-02-22T08:23:43;20.00;;;7.75;;
13457;SDS011;6801;53.018;11.560;2023-02-22T08:26:10;19.35;;;7.07;;
13457;SDS011;6801;53.018;11.560;2023-02-22T08:28:39;17.05;;;8.20;;
13457;SDS011;6801;53.018;11.560;2023-02-22T08:31:07;20.83;;;7.25;;
13457;SDS011;6801;53.018;11.560;2023-02-22T08:33:34;20.75;;;8.20;;
13457;SDS011;6801;53.018;11.560;2023-02-22T08:36:01;18.30;;;7.45;;
13457;SDS011;6801;53.018;11.560;2023-02-22T08:38:30;25.70;;;8.73;;
13457;SDS011;6801;53.018;11.560;2023-02-22T08:40:58;26.83;;;8.88;;
13457;SDS011;6801;53.018;11.560;2023-02-22T08:43:25;24.15;;;9.48;;
13457;SDS011;6801;53.018;11.560;2023-02-22T08:45:52;28.10;;;8.07;;
13457;SDS011;6801;53.018;11.560;2023-02-22T08:48:20;24.50;;;7.47;;
13457;SDS011;6801;53.018;11.560;2023-02-22T08:50:47;25.65;;;7.50;;
13457;SDS011;6801;53.018;11.560;2023-02-22T08:53:14;17.80;;;8.10;;
13457;SDS011;6801;53.018;11.560;2023-02-22T08:55:43;20.85;;;7.00;;
13457;SDS011;6801;53.018;11.560;2023-02-22T08:58:10;17.50;;;6.95;;
13457;SDS011;6801;53.018;11.560;2023-02-22T09:00:38;19.33;;;6.22;;
13457;SDS011;6801;53.018;11.560;2023-02-22T09:03:08;16.40;;;6.13;;
13457;SDS011;6801;53.018;11.560;2023-02-22T09:05:37;17.17;;;6.07;;
13457;SDS011;6801;53.018;11.560;2023-02-22T09:08:04;19.38;;;5.70;;
13457;SDS011;6801;53.018;11.560;2023-02-22T09:10:32;16.75;;;6.93;;
13457;SDS011;6801;53.018;11.560;2023-02-22T09:13:01;17.90;;;5.80;;
13457;SDS011;6801;53.018;11.560;2023-02-22T09:15:29;19.45;;;5.60;;
13457;SDS011;6801;53.018;11.560;2023-02-22T09:17:56;19.60;;;7.18;;
13457;SDS011;6801;53.018;11.560;2023-02-22T09:20:24;19.02;;;8.68;;
13457;SDS011;6801;53.018;11.560;2023-02-22T09:22:52;19.38;;;7.65;;
13457;SDS011;6801;53.018;11.560;2023-02-22T09:25:20;17.95;;;8.05;;
13457;SDS011;6801;53.018;11.560;2023-02-22T09:27:48;23.92;;;12.27;;
13457;SDS011;6801;53.018;11.560;2023-02-22T09:30:19;21.30;;;10.35;;
13457;SDS011;6801;53.018;11.560;2023-02-22T09:32:49;31.65;;;17.80;;
13457;SDS011;6801;53.018;11.560;2023-02-22T09:35:17;28.85;;;13.40;;
13457;SDS011;6801;53.018;11.560;2023-02-22T09:37:51;15.50;;;7.50;;
13457;SDS011;6801;53.018;11.560;2023-02-22T09:40:19;14.38;;;6.88;;
13457;SDS011;6801;53.018;11.560;2023-02-22T09:42:53;22.63;;;10.73;;
13457;SDS011;6801;53.018;11.560;2023-02-22T09:45:28;38.00;;;18.20;;
13457;SDS011;6801;53.018;11.560;2023-02-22T09:48:01;31.20;;;18.20;;
13457;SDS011;6801;53.018;11.560;2023-02-22T09:50:33;22.85;;;10.38;;
13457;SDS011;6801;53.018;11.560;2023-02-22T09:53:10;20.33;;;8.60;;
13457;SDS011;6801;53.018;11.560;2023-02-22T09:55:47;28.33;;;13.60;;
13457;SDS011;6801;53.018;11.560;2023-02-22T09:58:18;34.20;;;12.02;;
13457;SDS011;6801;53.018;11.560;2023-02-22T10:00:49;33.67;;;14.57;;
13457;SDS011;6801;53.018;11.560;2023-02-22T10:03:24;29.48;;;14.45;;
13457;SDS011;6801;53.018;11.560;2023-02-22T10:05:56;30.27;;;12.52;;
13457;SDS011;6801;53.018;11.560;2023-02-22T10:08:28;30.73;;;11.30;;
13457;SDS011;6801;53.018;11.560;2023-02-22T10:11:02;32.00;;;13.02;;
13457;SDS011;6801;53.018;11.560;2023-02-22T10:13:36;25.35;;;9.77;;
13457;SDS011;6801;53.018;11.560;2023-02-22T10:16:17;29.20;;;11.10;;
13457;SDS011;6801;53.018;11.560;2023-02-22T10:18:55;29.98;;;11.90;;
13457;SDS011;6801;53.018;11.560;2023-02-22T10:21:43;33.67;;;11.48;;
13457;SDS011;6801;53.018;11.560;2023-02-22T10:24:26;26.95;;;10.18;;
13457;SDS011;6801;53.018;11.560;2023-02-22T10:27:02;25.75;;;11.07;;
13457;SDS011;6801;53.018;11.560;2023-02-22T10:29:34;29.67;;;11.05;;
13457;SDS011;6801;53.018;11.560;2023-02-22T10:32:10;23.50;;;9.55;;
13457;SDS011;6801;53.018;11.560;2023-02-22T10:34:42;31.52;;;11.63;;
13457;SDS011;6801;53.018;11.560;2023-02-22T10:37:22;28.90;;;11.80;;
13457;SDS011;6801;53.018;11.560;2023-02-22T10:39:52;32.17;;;12.50;;
13457;SDS011;6801;53.018;11.560;2023-02-22T10:42:24;24.50;;;11.20;;
13457;SDS011;6801;53.018;11.560;2023-02-22T10:44:53;31.70;;;11.65;;
13457;SDS011;6801;53.018;11.560;2023-02-22T10:47:21;26.75;;;11.88;;
13457;SDS011;6801;53.018;11.560;2023-02-22T10:49:50;30.00;;;11.70;;
13457;SDS011;6801;53.018;11.560;2023-02-22T10:52:22;27.02;;;10.90;;
13457;SDS011;6801;53.018;11.560;2023-02-22T10:54:51;21.52;;;10.10;;
13457;SDS011;6801;53.018;11.560;2023-02-22T10:57:21;24.00;;;11.60;;
13457;SDS011;6801;53.018;11.560;2023-02-22T10:59:50;25.88;;;11.85;;
13457;SDS011;6801;53.018;11.560;2023-02-22T11:02:24;22.13;;;11.15;;
13457;SDS011;6801;53.018;11.560;2023-02-22T11:04:56;20.20;;;9.70;;
13457;SDS011;6801;53.018;11.560;2023-02-22T11:07:25;23.27;;;10.15;;
13457;SDS011;6801;53.018;11.560;2023-02-22T11:09:54;20.98;;;10.20;;
13457;SDS011;6801;53.018;11.560;2023-02-22T11:12:26;25.38;;;12.57;;
13457;SDS011;6801;53.018;11.560;2023-02-22T11:14:56;40.58;;;28.58;;
13457;SDS011;6801;53.018;11.560;2023-02-22T11:17:27;22.25;;;10.77;;
13457;SDS011;6801;53.018;11.560;2023-02-22T11:19:56;47.65;;;30.80;;
13457;SDS011;6801;53.018;11.560;2023-02-22T11:22:24;32.63;;;18.98;;
13457;SDS011;6801;53.018;11.560;2023-02-22T11:24:56;21.20;;;10.07;;
13457;SDS011;6801;53.018;11.560;2023-02-22T11:27:27;20.08;;;10.20;;
13457;SDS011;6801;53.018;11.560;2023-02-22T11:30:06;28.77;;;18.67;;
13457;SDS011;6801;53.018;11.560;2023-02-22T11:32:43;68.78;;;48.50;;
13457;SDS011;6801;53.018;11.560;2023-02-22T11:35:31;39.88;;;21.90;;
13457;SDS011;6801;53.018;11.560;2023-02-22T11:38:13;24.55;;;13.32;;
13457;SDS011;6801;53.018;11.560;2023-02-22T11:40:42;23.35;;;11.40;;
13457;SDS011;6801;53.018;11.560;2023-02-22T11:43:13;22.30;;;12.80;;
13457;SDS011;6801;53.018;11.560;2023-02-22T11:45:54;80.75;;;46.80;;
13457;SDS011;6801;53.018;11.560;2023-02-22T11:48:29;22.35;;;12.48;;
13457;SDS011;6801;53.018;11.560;2023-02-22T11:51:15;57.83;;;31.77;;
13457;SDS011;6801;53.018;11.560;2023-02-22T11:53:58;17.40;;;9.05;;
13457;SDS011;6801;53.018;11.560;2023-02-22T11:56:47;229.93;;;79.18;;
13457;SDS011;6801;53.018;11.560;2023-02-22T11:59:19;262.60;;;106.72;;
13457;SDS011;6801;53.018;11.560;2023-02-22T12:01:53;64.82;;;27.08;;
13457;SDS011;6801;53.018;11.560;2023-02-22T12:07:38;126.38;;;48.72;;
13457;SDS011;6801;53.018;11.560;2023-02-22T12:10:18;177.05;;;83.55;;
13457;SDS011;6801;53.018;11.560;2023-02-22T12:13:04;19.00;;;11.43;;
13457;SDS011;6801;53.018;11.560;2023-02-22T12:15:47;187.15;;;92.60;;
13457;SDS011;6801;53.018;11.560;2023-02-22T12:18:22;92.35;;;46.58;;
13457;SDS011;6801;53.018;11.560;2023-02-22T12:20:58;16.25;;;10.50;;
13457;SDS011;6801;53.018;11.560;2023-02-22T12:23:29;16.02;;;7.80;;
13457;SDS011;6801;53.018;11.560;2023-02-22T12:26:02;17.27;;;6.57;;
13457;SDS011;6801;53.018;11.560;2023-02-22T12:28:35;15.63;;;6.63;;
13457;SDS011;6801;53.018;11.560;2023-02-22T12:31:13;14.70;;;6.45;;
13457;SDS011;6801;53.018;11.560;2023-02-22T12:33:47;13.40;;;7.82;;
13457;SDS011;6801;53.018;11.560;2023-02-22T12:36:26;44.00;;;23.42;;
13457;SDS011;6801;53.018;11.560;2023-02-22T12:39:01;36.22;;;19.00;;
13457;SDS011;6801;53.018;11.560;2023-02-22T12:41:32;63.53;;;33.20;;
13457;SDS011;6801;53.018;11.560;2023-02-22T12:44:04;26.40;;;14.25;;
13457;SDS011;6801;53.018;11.560;2023-02-22T12:46:36;23.95;;;12.10;;
13457;SDS011;6801;53.018;11.560;2023-02-22T12:49:08;21.27;;;12.88;;
13457;SDS011;6801;53.018;11.560;2023-02-22T12:51:43;112.35;;;56.15;;
13457;SDS011;6801;53.018;11.560;2023-02-22T12:54:20;62.83;;;31.55;;
13457;SDS011;6801;53.018;11.560;2023-02-22T12:56:52;18.42;;;8.85;;
13457;SDS011;6801;53.018;11.560;2023-02-22T12:59:24;95.82;;;51.95;;
13457;SDS011;6801;53.018;11.560;2023-02-22T13:01:56;13.90;;;7.78;;
13457;SDS011;6801;53.018;11.560;2023-02-22T13:04:28;20.00;;;12.52;;
13457;SDS011;6801;53.018;11.560;2023-02-22T13:10:02;13.13;;;6.00;;
13457;SDS011;6801;53.018;11.560;2023-02-22T13:12:52;10.73;;;5.88;;
13457;SDS011;6801;53.018;11.560;2023-02-22T13:15:29;9.20;;;5.00;;
13457;SDS011;6801;53.018;11.560;2023-02-22T13:18:01;10.07;;;5.18;;
13457;SDS011;6801;53.018;11.560;2023-02-22T13:20:36;9.35;;;4.90;;
13457;SDS011;6801;53.018;11.560;2023-02-22T13:23:08;10.75;;;5.15;;
13457;SDS011;6801;53.018;11.560;2023-02-22T13:25:43;10.27;;;5.57;;
13457;SDS011;6801;53.018;11.560;2023-02-22T13:28:20;10.15;;;5.05;;
13457;SDS011;6801;53.018;11.560;2023-02-22T13:30:59;9.93;;;4.85;;
13457;SDS011;6801;53.018;11.560;2023-02-22T13:33:42;12.10;;;5.32;;
13457;SDS011;6801;53.018;11.560;2023-02-22T13:36:32;12.38;;;4.68;;
13457;SDS011;6801;53.018;11.560;2023-02-22T13:39:18;10.90;;;4.53;;
13457;SDS011;6801;53.018;11.560;2023-02-22T13:42:28;8.65;;;4.88;;
13457;SDS011;6801;53.018;11.560;2023-02-22T13:48:10;10.05;;;4.43;;
13457;SDS011;6801;53.018;11.560;2023-02-22T13:53:58;9.60;;;4.32;;
13457;SDS011;6801;53.018;11.560;2023-02-22T13:56:30;10.02;;;4.07;;
13457;SDS011;6801;53.018;11.560;2023-02-22T13:58:58;8.52;;;4.63;;
13457;SDS011;6801;53.018;11.560;2023-02-22T14:01:40;7.18;;;3.67;;
13457;SDS011;6801;53.018;11.560;2023-02-22T14:10:35;12.13;;;4.70;;
13457;SDS011;6801;53.018;11.560;2023-02-22T14:13:14;8.60;;;4.35;;
13457;SDS011;6801;53.018;11.560;2023-02-22T14:18:43;8.57;;;3.53;;
13457;SDS011;6801;53.018;11.560;2023-02-22T14:21:13;11.00;;;4.50;;
13457;SDS011;6801;53.018;11.560;2023-02-22T14:23:43;11.38;;;5.07;;
13457;SDS011;6801;53.018;11.560;2023-02-22T14:26:13;8.73;;;4.25;;
13457;SDS011;6801;53.018;11.560;2023-02-22T14:28:53;10.30;;;4.55;;
13457;SDS011;6801;53.018;11.560;2023-02-22T14:31:23;8.65;;;4.50;;
13457;SDS011;6801;53.018;11.560;2023-02-22T14:34:03;8.18;;;4.00;;
13457;SDS011;6801;53.018;11.560;2023-02-22T14:36:33;9.50;;;4.68;;
13457;SDS011;6801;53.018;11.560;2023-02-22T14:39:09;9.45;;;4.05;;
13457;SDS011;6801;53.018;11.560;2023-02-22T14:41:42;8.38;;;4.03;;
13457;SDS011;6801;53.018;11.560;2023-02-22T14:44:15;9.23;;;4.47;;
13457;SDS011;6801;53.018;11.560;2023-02-22T14:46:48;12.77;;;4.72;;
13457;SDS011;6801;53.018;11.560;2023-02-22T14:49:18;9.23;;;4.95;;
13457;SDS011;6801;53.018;11.560;2023-02-22T14:51:49;10.77;;;4.95;;
13457;SDS011;6801;53.018;11.560;2023-02-22T14:54:22;12.05;;;4.65;;
13457;SDS011;6801;53.018;11.560;2023-02-22T14:56:54;9.73;;;5.53;;
13457;SDS011;6801;53.018;11.560;2023-02-22T14:59:42;10.73;;;5.10;;
13457;SDS011;6801;53.018;11.560;2023-02-22T15:02:17;11.38;;;5.93;;
13457;SDS011;6801;53.018;11.560;2023-02-22T15:04:50;13.18;;;5.68;;
13457;SDS011;6801;53.018;11.560;2023-02-22T15:07:19;12.18;;;5.20;;
13457;SDS011;6801;53.018;11.560;2023-02-22T15:09:51;11.88;;;5.40;;
13457;SDS011;6801;53.018;11.560;2023-02-22T15:12:31;10.07;;;4.70;;
13457;SDS011;6801;53.018;11.560;2023-02-22T15:15:15;10.43;;;4.82;;
13457;SDS011;6801;53.018;11.560;2023-02-22T15:17:46;12.25;;;5.63;;
13457;SDS011;6801;53.018;11.560;2023-02-22T15:20:17;9.88;;;4.90;;
13457;SDS011;6801;53.018;11.560;2023-02-22T15:22:46;11.20;;;5.55;;